Time;durP1;ratioP1;P1;durP2;ratioP2;P2;SDS_P1;SDS_P2;PMS_P1;PMS_P2;Temp;Humidity;BMP_temperature;BMP_pressure;BME280_temperature;BME280_humidity;BME280_pressure;Samples;Min_cycle;Max_cycle;Signal;HPM_P1;HPM_P2
2021/12/08 00:01:59;;;;;;;3.10;0.50;;;18.60;56.70;;;;;;5052802;28;20494;-65
2021/12/08 00:04:25;;;;;;;1.52;0.50;;;18.60;56.80;;;;;;5054393;28;20029;-65
2021/12/08 00:06:50;;;;;;;3.83;0.68;;;18.60;56.80;;;;;;5054356;28;20139;-65
2021/12/08 00:09:36;;;;;;;1.33;0.70;;;18.60;56.80;;;;;;5052813;28;20482;-65
2021/12/08 00:14:45;;;;;;;1.67;0.47;;;18.60;56.80;;;;;;5053160;28;20113;-65
2021/12/08 00:17:11;;;;;;;1.25;0.40;;;18.50;56.90;;;;;;5053675;28;20104;-65
2021/12/08 00:19:37;;;;;;;1.45;0.55;;;18.50;56.80;;;;;;5054168;28;20029;-65
2021/12/08 00:22:02;;;;;;;1.20;0.60;;;18.50;56.80;;;;;;5054154;28;20021;-65
2021/12/08 00:24:28;;;;;;;2.08;0.57;;;18.50;56.90;;;;;;5053807;28;20080;-65
2021/12/08 00:26:56;;;;;;;1.05;0.65;;;18.50;56.80;;;;;;5053809;28;20029;-65
2021/12/08 00:29:22;;;;;;;1.55;0.60;;;18.50;56.90;;;;;;5053856;28;20017;-65
2021/12/08 00:31:47;;;;;;;1.15;0.45;;;18.50;56.90;;;;;;5053506;28;20070;-64
2021/12/08 00:34:13;;;;;;;1.13;0.70;;;18.50;56.90;;;;;;5053681;28;20025;-65
2021/12/08 00:36:45;;;;;;;1.60;0.50;;;18.50;56.90;;;;;;5052603;28;20031;-65
2021/12/08 00:39:11;;;;;;;2.47;0.80;;;18.50;56.90;;;;;;5052336;28;20447;-65
2021/12/08 00:41:37;;;;;;;4.07;0.70;;;18.50;56.90;;;;;;5052572;28;20744;-65
2021/12/08 00:44:04;;;;;;;1.05;0.60;;;18.50;56.90;;;;;;5053615;28;20029;-65
2021/12/08 00:46:29;;;;;;;1.23;0.70;;;18.50;57.00;;;;;;5051293;28;20029;-65
2021/12/08 00:48:55;;;;;;;1.80;0.50;;;18.50;56.90;;;;;;5053566;28;20033;-65
2021/12/08 00:51:20;;;;;;;1.40;0.40;;;18.50;57.00;;;;;;5052171;28;20453;-65
2021/12/08 00:53:46;;;;;;;1.00;0.50;;;18.50;57.00;;;;;;5053449;28;20472;-65
2021/12/08 00:56:12;;;;;;;0.95;0.63;;;18.50;57.00;;;;;;5053294;28;20056;-65
2021/12/08 00:58:38;;;;;;;0.47;0.38;;;18.50;57.00;;;;;;5053312;28;20021;-65
2021/12/08 01:01:04;;;;;;;1.70;0.60;;;18.50;57.00;;;;;;5051865;28;20025;-64
2021/12/08 01:03:29;;;;;;;0.90;0.50;;;18.50;57.00;;;;;;5053297;28;20558;-65
2021/12/08 01:05:55;;;;;;;0.95;0.50;;;18.50;57.00;;;;;;5051887;28;20100;-65
2021/12/08 01:08:22;;;;;;;0.50;0.40;;;18.50;57.00;;;;;;5052884;28;20017;-65
2021/12/08 01:10:49;;;;;;;1.20;0.57;;;18.50;57.10;;;;;;5051976;28;20043;-64
2021/12/08 01:13:14;;;;;;;0.75;0.40;;;18.50;57.10;;;;;;5051716;28;20024;-65
2021/12/08 01:15:42;;;;;;;0.88;0.57;;;18.50;57.10;;;;;;5052689;28;20029;-64
2021/12/08 01:18:07;;;;;;;1.65;0.50;;;18.50;57.10;;;;;;5051931;28;20045;-64
2021/12/08 01:20:33;;;;;;;1.33;0.43;;;18.50;57.20;;;;;;5052796;28;20080;-65
2021/12/08 01:22:59;;;;;;;1.98;0.47;;;18.50;57.10;;;;;;5052778;28;20052;-65
2021/12/08 01:25:25;;;;;;;2.13;0.70;;;18.50;57.10;;;;;;5051729;28;20556;-65
2021/12/08 01:27:51;;;;;;;0.80;0.50;;;18.50;57.20;;;;;;5052625;28;20022;-65
2021/12/08 01:30:16;;;;;;;0.95;0.40;;;18.50;57.10;;;;;;5051143;28;20021;-65
2021/12/08 01:32:42;;;;;;;1.30;0.57;;;18.50;57.10;;;;;;5052869;28;20028;-65
2021/12/08 01:35:08;;;;;;;1.00;0.50;;;18.50;57.20;;;;;;5052559;28;20025;-65
2021/12/08 01:37:34;;;;;;;2.00;0.47;;;18.40;57.20;;;;;;5052720;28;20021;-65
2021/12/08 01:40:00;;;;;;;1.00;0.40;;;18.50;57.20;;;;;;5052457;28;20025;-65
2021/12/08 01:42:33;;;;;;;0.47;0.40;;;18.50;57.20;;;;;;5052549;28;20036;-65
2021/12/08 01:47:42;;;;;;;1.65;0.32;;;18.40;57.20;;;;;;5052494;28;20032;-65
2021/12/08 01:50:08;;;;;;;0.80;0.40;;;18.40;57.30;;;;;;5052265;28;20025;-65
2021/12/08 01:52:34;;;;;;;1.55;0.77;;;18.40;57.30;;;;;;5052370;28;20021;-65
2021/12/08 01:54:59;;;;;;;0.82;0.60;;;18.40;57.30;;;;;;5052371;28;20056;-65
2021/12/08 01:57:25;;;;;;;2.03;0.40;;;18.40;57.30;;;;;;5051585;28;20394;-65
2021/12/08 01:59:51;;;;;;;1.42;0.35;;;18.40;57.30;;;;;;5051101;28;20055;-65
2021/12/08 02:02:16;;;;;;;1.77;0.47;;;18.40;57.30;;;;;;5052236;28;20025;-65
2021/12/08 02:04:42;;;;;;;0.63;0.50;;;18.40;57.30;;;;;;5051238;28;20112;-65
2021/12/08 02:07:08;;;;;;;0.43;0.38;;;18.40;58.30;;;;;;5052583;28;20029;-65
2021/12/08 02:09:33;;;;;;;0.90;0.30;;;18.40;57.30;;;;;;5052109;28;20036;-65
2021/12/08 02:11:59;;;;;;;0.65;0.40;;;18.40;57.30;;;;;;5050702;28;20032;-65
2021/12/08 02:14:25;;;;;;;1.20;0.50;;;18.40;57.30;;;;;;5052159;28;20053;-65
2021/12/08 02:16:52;;;;;;;1.38;0.52;;;18.40;57.30;;;;;;5052204;28;20505;-65
2021/12/08 02:19:18;;;;;;;2.10;0.40;;;18.40;57.40;;;;;;5050951;28;20075;-65
2021/12/08 02:21:46;;;;;;;0.65;0.38;;;18.40;57.40;;;;;;5052055;28;20021;-65
2021/12/08 02:24:13;;;;;;;1.05;0.45;;;18.40;57.40;;;;;;5050729;28;20053;-65
2021/12/08 02:26:41;;;;;;;0.60;0.38;;;18.40;57.40;;;;;;5050518;28;20017;-65
2021/12/08 02:29:10;;;;;;;0.85;0.40;;;18.40;57.40;;;;;;5034380;28;20044;-64
2021/12/08 02:31:51;;;;;;;0.47;0.32;;;18.40;57.40;;;;;;5052061;28;20516;-64
2021/12/08 02:48:08;;;;;;;0.52;0.50;;;18.40;57.50;;;;;;5029667;28;20144;-64
2021/12/08 02:50:38;;;;;;;0.85;0.38;;;18.40;57.60;;;;;;5029795;28;20076;-64
2021/12/08 02:53:05;;;;;;;0.57;0.40;;;18.40;57.60;;;;;;4997255;28;20538;-64
2021/12/08 02:55:30;;;;;;;0.60;0.28;;;18.40;57.60;;;;;;5013024;28;20036;-64
2021/12/08 02:57:57;;;;;;;0.88;0.32;;;18.40;57.50;;;;;;5029933;28;20041;-64
2021/12/08 03:00:25;;;;;;;0.80;0.40;;;18.40;57.50;;;;;;5013201;28;20503;-64
2021/12/08 03:02:56;;;;;;;1.50;0.40;;;18.40;57.60;;;;;;5029829;28;20049;-64
2021/12/08 03:05:22;;;;;;;0.90;0.30;;;18.40;57.50;;;;;;5013877;28;20045;-64
2021/12/08 03:07:48;;;;;;;0.57;0.32;;;18.40;57.60;;;;;;5013461;28;20124;-64
2021/12/08 03:10:16;;;;;;;2.70;0.60;;;18.40;57.60;;;;;;5032763;28;20510;-65
2021/12/08 03:12:42;;;;;;;0.93;0.50;;;18.40;57.60;;;;;;5017083;28;20091;-65
2021/12/08 03:15:08;;;;;;;0.80;0.30;;;18.40;57.60;;;;;;5033178;28;20029;-65
2021/12/08 03:17:34;;;;;;;0.68;0.47;;;18.40;57.60;;;;;;5033267;28;20091;-65
2021/12/08 03:20:01;;;;;;;1.02;0.30;;;18.40;57.60;;;;;;5033234;28;20030;-65
2021/12/08 03:22:27;;;;;;;0.47;0.32;;;18.40;57.60;;;;;;5032836;28;20067;-65
2021/12/08 03:24:53;;;;;;;1.38;0.50;;;18.40;57.60;;;;;;5034299;28;20041;-65
2021/12/08 03:27:26;;;;;;;0.75;0.40;;;18.40;57.70;;;;;;5033808;28;20071;-65
2021/12/08 03:30:10;;;;;;;;;;;18.40;57.60;;;;;;5035549;28;20391;-65
2021/12/08 03:32:38;;;;;;;0.63;0.40;;;18.40;57.70;;;;;;5035086;28;19916;-65
2021/12/08 03:35:05;;;;;;;0.63;0.38;;;18.40;57.80;;;;;;5035066;28;20041;-65
2021/12/08 03:37:37;;;;;;;1.13;0.50;;;18.40;57.80;;;;;;5035139;28;20022;-65
2021/12/08 03:40:24;;;;;;;1.17;0.30;;;18.40;58.80;;;;;;5033638;28;20025;-65
2021/12/08 03:42:51;;;;;;;1.35;0.30;;;18.40;57.80;;;;;;5033856;28;20041;-65
2021/12/08 03:45:20;;;;;;;0.50;0.40;;;18.40;57.80;;;;;;5033573;28;20056;-65
2021/12/08 03:47:47;;;;;;;0.75;0.40;;;18.40;57.80;;;;;;5033566;28;20049;-64
2021/12/08 03:50:14;;;;;;;0.30;0.20;;;18.40;57.80;;;;;;5035996;28;20461;-65
2021/12/08 03:52:40;;;;;;;0.40;0.20;;;18.40;57.90;;;;;;5053360;28;20032;-65
2021/12/08 03:55:07;;;;;;;0.82;0.22;;;18.40;58.80;;;;;;5054275;28;20100;-65
2021/12/08 03:57:33;;;;;;;0.90;0.40;;;18.40;57.80;;;;;;5054494;28;20051;-65
2021/12/08 03:59:59;;;;;;;0.38;0.30;;;18.40;57.80;;;;;;5053464;28;20116;-65
2021/12/08 04:02:24;;;;;;;1.13;0.40;;;18.40;57.80;;;;;;5054336;28;20103;-65
2021/12/08 04:04:51;;;;;;;1.83;0.38;;;18.40;57.80;;;;;;5054490;28;20025;-65
2021/12/08 04:07:18;;;;;;;0.45;0.38;;;18.40;57.90;;;;;;5054086;28;20041;-65
2021/12/08 04:09:45;;;;;;;0.57;0.22;;;18.40;57.80;;;;;;5052642;28;20025;-65
2021/12/08 04:12:13;;;;;;;0.80;0.40;;;18.40;57.80;;;;;;5053111;28;20021;-65
2021/12/08 04:14:42;;;;;;;0.88;0.40;;;18.40;57.80;;;;;;5052944;28;20033;-65
2021/12/08 04:17:15;;;;;;;0.47;0.20;;;18.40;57.80;;;;;;5036576;28;20024;-65
2021/12/08 04:19:40;;;;;;;1.58;0.52;;;18.40;57.90;;;;;;5051894;28;20029;-65
2021/12/08 04:22:16;;;;;;;0.68;0.45;;;18.40;57.90;;;;;;5052878;28;20509;-65
2021/12/08 04:24:42;;;;;;;0.40;0.38;;;18.40;57.80;;;;;;5052342;28;20079;-65
2021/12/08 04:27:12;;;;;;;1.10;0.50;;;18.40;57.90;;;;;;5036150;28;20021;-65
2021/12/08 04:29:39;;;;;;;0.43;0.22;;;18.40;57.90;;;;;;5053837;28;20020;-64
2021/12/08 04:32:05;;;;;;;1.30;0.30;;;18.40;57.90;;;;;;5052758;28;20044;-65
2021/12/08 04:34:34;;;;;;;0.80;0.40;;;18.40;57.90;;;;;;5053703;28;20025;-65
2021/12/08 04:37:03;;;;;;;0.47;0.30;;;18.40;57.90;;;;;;5052291;28;20021;-65
2021/12/08 04:42:37;;;;;;;1.20;0.30;;;18.40;57.90;;;;;;5053731;28;20113;-65
2021/12/08 04:45:10;;;;;;;0.32;0.30;;;18.40;57.90;;;;;;5038049;28;20032;-65
2021/12/08 04:47:48;;;;;;;1.35;0.30;;;18.40;57.90;;;;;;5052327;28;20025;-65
2021/12/08 04:50:37;;;;;;;0.73;0.20;;;18.40;57.90;;;;;;5037543;28;20017;-65
2021/12/08 04:53:29;;;;;;;1.52;0.45;;;18.30;58.00;;;;;;5053134;28;20547;-65
2021/12/08 05:01:34;;;;;;;0.20;0.20;;;18.30;58.00;;;;;;5053625;28;20079;-65
2021/12/08 05:04:13;;;;;;;0.57;0.30;;;18.30;58.00;;;;;;5053317;28;20048;-65
2021/12/08 05:06:49;;;;;;;0.77;0.30;;;18.30;58.00;;;;;;5052637;28;20544;-65
2021/12/08 05:09:17;;;;;;;0.40;0.30;;;18.30;58.10;;;;;;5051938;28;20494;-65
2021/12/08 05:11:55;;;;;;;0.60;0.30;;;18.30;58.10;;;;;;5052897;28;20025;-65
2021/12/08 05:14:26;;;;;;;1.00;0.57;;;18.30;58.00;;;;;;5053020;28;20020;-65
2021/12/08 05:16:57;;;;;;;0.55;0.20;;;18.30;58.10;;;;;;5053069;28;20050;-65
2021/12/08 05:19:25;;;;;;;1.08;0.30;;;18.30;58.10;;;;;;5052978;28;20017;-65
2021/12/08 05:21:57;;;;;;;0.57;0.30;;;18.30;58.10;;;;;;5051382;28;20033;-65
2021/12/08 05:24:32;;;;;;;0.40;0.22;;;18.30;58.00;;;;;;5051504;28;20055;-65
2021/12/08 05:27:27;;;;;;;1.77;0.40;;;18.30;58.10;;;;;;5052902;28;20083;-65
2021/12/08 05:30:05;;;;;;;1.63;0.40;;;18.30;58.00;;;;;;5051823;28;20025;-65
2021/12/08 05:32:30;;;;;;;0.50;0.20;;;18.30;58.10;;;;;;5052468;28;20056;-64
2021/12/08 05:34:57;;;;;;;1.30;0.52;;;18.30;58.10;;;;;;5052531;28;20102;-64
2021/12/08 05:37:23;;;;;;;0.98;0.45;;;18.30;58.20;;;;;;5051371;28;20033;-65
2021/12/08 05:39:48;;;;;;;3.10;0.30;;;18.30;58.20;;;;;;5052534;28;20500;-65
2021/12/08 05:42:18;;;;;;;0.43;0.30;;;18.30;58.10;;;;;;5051468;28;20040;-65
2021/12/08 05:44:44;;;;;;;0.90;0.40;;;18.30;58.20;;;;;;5052520;28;20029;-65
2021/12/08 05:47:13;;;;;;;1.35;0.47;;;18.30;58.10;;;;;;5052478;28;20064;-65
2021/12/08 05:49:39;;;;;;;1.05;0.45;;;18.30;58.10;;;;;;5050881;28;20020;-65
2021/12/08 05:52:05;;;;;;;2.88;1.17;;;18.30;58.10;;;;;;5052435;28;20033;-65
2021/12/08 05:54:32;;;;;;;1.20;0.45;;;18.30;58.10;;;;;;5052471;28;20020;-65
2021/12/08 05:57:00;;;;;;;0.45;0.30;;;18.30;58.20;;;;;;5051240;28;20021;-65
2021/12/08 05:59:26;;;;;;;0.73;0.45;;;18.30;58.10;;;;;;5052316;28;20017;-65
2021/12/08 06:01:55;;;;;;;2.17;0.47;;;18.30;58.20;;;;;;5051114;28;20029;-65
2021/12/08 06:04:23;;;;;;;2.40;0.40;;;18.30;58.20;;;;;;5050861;28;20022;-65
2021/12/08 06:06:48;;;;;;;1.63;0.40;;;18.30;58.20;;;;;;5052104;28;20021;-65
2021/12/08 06:09:15;;;;;;;0.98;0.40;;;18.30;58.20;;;;;;5052130;28;20029;-65
2021/12/08 06:11:40;;;;;;;1.10;0.38;;;18.30;58.20;;;;;;5050952;28;20078;-65
2021/12/08 06:14:07;;;;;;;0.63;0.40;;;18.30;58.20;;;;;;5052615;28;20021;-65
2021/12/08 06:16:33;;;;;;;0.88;0.30;;;18.30;58.30;;;;;;5052083;28;20159;-65
2021/12/08 06:18:59;;;;;;;0.63;0.28;;;18.30;58.20;;;;;;5051780;28;20096;-65
2021/12/08 06:21:25;;;;;;;1.40;0.30;;;18.30;58.30;;;;;;5034542;28;20494;-65
2021/12/08 06:23:51;;;;;;;0.35;0.30;;;18.30;58.30;;;;;;5051791;28;20045;-65
2021/12/08 06:26:18;;;;;;;0.38;0.20;;;18.30;58.30;;;;;;5050985;28;20402;-65
2021/12/08 06:28:44;;;;;;;1.20;0.30;;;18.30;58.30;;;;;;5050851;28;20036;-64
2021/12/08 06:31:11;;;;;;;0.52;0.22;;;18.30;58.30;;;;;;5052254;28;20021;-65
2021/12/08 06:33:37;;;;;;;0.73;0.20;;;18.30;58.30;;;;;;5051751;28;20025;-65
2021/12/08 06:36:09;;;;;;;1.40;0.47;;;18.30;58.40;;;;;;5051999;28;20099;-65
2021/12/08 06:38:35;;;;;;;1.52;0.45;;;18.30;58.30;;;;;;5051970;28;20099;-65
2021/12/08 06:41:07;;;;;;;0.35;0.20;;;18.30;58.30;;;;;;5050866;28;20111;-65
2021/12/08 06:43:36;;;;;;;1.30;0.25;;;18.30;58.30;;;;;;5052167;28;20025;-64
2021/12/08 06:46:03;;;;;;;0.88;0.30;;;18.30;58.30;;;;;;5054814;28;20017;-65
2021/12/08 06:48:31;;;;;;;0.65;0.22;;;18.30;58.40;;;;;;5054201;28;20532;-65
2021/12/08 06:51:19;;;;;;;0.52;0.20;;;18.30;58.40;;;;;;5055669;28;20037;-65
2021/12/08 06:53:46;;;;;;;1.17;0.38;;;18.30;59.40;;;;;;5055550;28;20013;-65
2021/12/08 06:56:17;;;;;;;1.42;0.30;;;18.30;58.40;;;;;;5054778;28;20025;-65
2021/12/08 06:58:47;;;;;;;1.08;0.35;;;18.30;58.40;;;;;;5054369;28;20079;-65
2021/12/08 07:01:34;;;;;;;1.55;0.40;;;18.30;58.50;;;;;;5055716;28;20029;-65
2021/12/08 07:04:29;;;;;;;0.32;0.22;;;18.30;58.40;;;;;;5054087;28;20036;-65
2021/12/08 07:07:14;;;;;;;0.82;0.30;;;18.30;58.50;;;;;;5055454;28;20021;-65
2021/12/08 07:09:49;;;;;;;0.30;0.20;;;18.30;58.40;;;;;;5055201;28;20032;-65
2021/12/08 07:12:29;;;;;;;0.93;0.28;;;18.30;58.50;;;;;;5055494;28;20024;-65
2021/12/08 07:15:16;;;;;;;1.67;0.50;;;18.30;58.50;;;;;;5055268;28;20017;-65
2021/12/08 07:17:43;;;;;;;0.77;0.30;;;18.30;58.50;;;;;;5053640;28;20478;-65
2021/12/08 07:20:18;;;;;;;0.55;0.40;;;18.20;58.50;;;;;;5053750;28;20017;-65
2021/12/08 07:22:47;;;;;;;0.47;0.30;;;18.20;58.50;;;;;;5052380;28;20021;-65
2021/12/08 07:25:13;;;;;;;0.50;0.40;;;18.20;58.50;;;;;;5051808;28;20100;-65
2021/12/08 07:27:39;;;;;;;0.52;0.43;;;18.20;58.50;;;;;;5035517;28;20143;-65
2021/12/08 07:30:09;;;;;;;0.88;0.25;;;18.20;58.50;;;;;;5053435;28;20140;-65
2021/12/08 07:32:36;;;;;;;1.35;0.50;;;18.20;58.50;;;;;;5052837;28;20017;-65
2021/12/08 07:35:06;;;;;;;1.50;0.60;;;18.30;58.60;;;;;;5050984;28;20020;-65
2021/12/08 07:37:33;;;;;;;1.25;0.32;;;18.20;58.50;;;;;;5053862;28;20032;-65
2021/12/08 07:40:14;;;;;;;3.20;0.50;;;18.20;58.50;;;;;;5053703;28;20013;-65
2021/12/08 07:42:54;;;;;;;1.40;0.20;;;18.30;58.60;;;;;;5052254;28;20057;-65
2021/12/08 07:45:31;;;;;;;1.13;0.52;;;18.30;58.60;;;;;;5052795;28;20447;-65
2021/12/08 07:47:56;;;;;;;1.08;0.50;;;18.30;58.60;;;;;;5033800;28;20032;-65
2021/12/08 07:50:29;;;;;;;1.25;0.40;;;18.20;58.60;;;;;;5053360;28;20512;-65
2021/12/08 07:52:55;;;;;;;;;;;18.30;58.60;;;;;;5053944;28;20057;-65
2021/12/08 07:55:28;;;;;;;1.00;0.40;;;18.20;58.50;;;;;;5052136;28;19912;-65
2021/12/08 07:57:54;;;;;;;1.95;0.40;;;18.20;58.70;;;;;;5052137;28;20021;-65
2021/12/08 08:00:29;;;;;;;0.55;0.40;;;18.20;58.70;;;;;;5053030;28;20501;-65
2021/12/08 08:02:55;;;;;;;1.45;0.40;;;18.20;58.70;;;;;;5051286;28;20043;-65
2021/12/08 08:05:22;;;;;;;1.27;0.38;;;18.20;58.70;;;;;;5053344;28;20032;-65
2021/12/08 08:07:48;;;;;;;1.50;0.35;;;18.20;58.60;;;;;;5053222;28;20021;-65
2021/12/08 08:10:15;;;;;;;0.45;0.35;;;18.20;58.60;;;;;;5053018;28;20079;-65
2021/12/08 08:12:43;;;;;;;0.98;0.50;;;18.20;58.60;;;;;;5052955;28;20062;-65
2021/12/08 08:15:21;;;;;;;0.82;0.38;;;18.20;58.70;;;;;;5051526;28;20055;-65
2021/12/08 08:17:49;;;;;;;0.77;0.30;;;18.20;58.60;;;;;;5050723;28;20391;-65
2021/12/08 08:20:19;;;;;;;0.40;0.25;;;18.20;58.60;;;;;;5051437;28;20029;-65
2021/12/08 08:22:45;;;;;;;1.20;0.40;;;18.20;58.60;;;;;;5051117;28;20025;-65
2021/12/08 08:25:12;;;;;;;1.25;0.52;;;18.30;58.70;;;;;;5052783;28;20037;-65
2021/12/08 08:27:38;;;;;;;1.20;0.50;;;18.30;58.70;;;;;;5052845;28;20450;-65
2021/12/08 08:30:08;;;;;;;2.50;0.30;;;18.30;58.70;;;;;;5052449;28;20013;-65
2021/12/08 08:32:36;;;;;;;0.70;0.30;;;18.30;58.70;;;;;;5052696;28;20020;-65
2021/12/08 08:35:31;;;;;;;0.88;0.20;;;18.20;58.60;;;;;;5052583;28;20021;-65
2021/12/08 08:37:58;;;;;;;0.50;0.30;;;18.30;58.70;;;;;;5046672;28;20040;-65
2021/12/08 08:40:33;;;;;;;1.70;0.38;;;18.30;58.70;;;;;;5051357;28;20593;-64
2021/12/08 08:43:01;;;;;;;0.73;0.30;;;18.30;58.80;;;;;;5048858;28;20071;-65
2021/12/08 08:45:27;;;;;;;0.30;0.30;;;18.30;58.70;;;;;;5033937;28;20048;-65
2021/12/08 08:47:57;;;;;;;1.75;0.60;;;18.20;58.60;;;;;;5051542;28;20065;-65
2021/12/08 08:50:33;;;;;;;1.30;0.40;;;18.30;58.70;;;;;;5051821;28;20035;-65
2021/12/08 08:53:00;;;;;;;0.65;0.30;;;18.30;58.70;;;;;;5050288;28;20017;-66
2021/12/08 08:55:33;;;;;;;0.10;0.10;;;18.30;58.80;;;;;;5051380;28;20017;-66
2021/12/08 08:58:00;;;;;;;0.68;0.22;;;18.30;58.80;;;;;;5049565;28;20053;-66
2021/12/08 09:00:31;;;;;;;1.50;0.40;;;18.30;58.70;;;;;;5039358;28;20021;-66
2021/12/08 09:02:59;;;;;;;6.22;0.35;;;18.30;58.60;;;;;;5043720;28;20470;-66
2021/12/08 09:05:52;;;;;;;0.60;0.30;;;18.30;58.60;;;;;;5047155;28;20458;-66
2021/12/08 09:08:18;;;;;;;0.30;0.20;;;18.30;58.60;;;;;;5027395;28;20052;-66
2021/12/08 09:10:49;;;;;;;1.88;0.38;;;18.30;58.60;;;;;;5052347;28;20021;-66
2021/12/08 09:13:28;;;;;;;0.40;0.28;;;18.30;58.60;;;;;;5053368;28;20028;-66
2021/12/08 09:16:02;;;;;;;0.13;0.10;;;18.30;58.40;;;;;;5052383;28;20486;-66
2021/12/08 09:18:46;;;;;;;0.73;0.20;;;18.30;58.40;;;;;;5036178;28;20526;-66
2021/12/08 09:21:21;;;;;;;0.30;0.30;;;18.30;58.80;;;;;;5051703;28;20471;-66
2021/12/08 09:24:07;;;;;;;0.60;0.22;;;18.30;58.40;;;;;;5043453;28;20041;-66
2021/12/08 09:26:33;;;;;;;1.30;0.30;;;18.30;58.20;;;;;;5046316;28;20028;-66
2021/12/08 09:29:20;;;;;;;0.70;0.20;;;18.30;58.30;;;;;;5035879;28;20509;-66
2021/12/08 09:31:56;;;;;;;1.35;0.40;;;18.40;58.30;;;;;;5044097;28;20356;-66
2021/12/08 09:34:32;;;;;;;1.48;0.40;;;18.30;58.30;;;;;;5033608;28;20029;-66
2021/12/08 09:37:00;;;;;;;0.70;0.30;;;18.40;58.30;;;;;;5038252;28;20033;-66
2021/12/08 09:39:31;;;;;;;1.25;0.32;;;18.40;58.30;;;;;;5033483;28;20040;-66
2021/12/08 09:42:10;;;;;;;1.13;0.50;;;18.40;58.20;;;;;;5031069;28;20541;-66
2021/12/08 09:44:39;;;;;;;1.55;0.50;;;18.40;58.10;;;;;;5031529;28;20021;-66
2021/12/08 09:47:05;;;;;;;1.17;0.55;;;18.40;58.10;;;;;;5032071;28;20071;-66
2021/12/08 09:49:31;;;;;;;1.83;0.60;;;18.40;58.10;;;;;;5030031;28;20029;-66
2021/12/08 09:51:58;;;;;;;1.95;0.50;;;18.40;58.10;;;;;;5031885;28;20013;-66
2021/12/08 09:54:24;;;;;;;2.53;0.55;;;18.40;58.10;;;;;;5031161;28;20108;-66
2021/12/08 09:56:52;;;;;;;3.90;1.27;;;18.40;58.10;;;;;;5014828;28;20109;-66
2021/12/08 09:59:17;;;;;;;12.00;2.13;;;18.40;58.00;;;;;;5031770;28;20040;-66
2021/12/08 10:01:44;;;;;;;10.32;1.75;;;18.40;58.10;;;;;;5031771;28;20116;-67
2021/12/08 10:04:11;;;;;;;10.40;2.25;;;18.40;57.70;;;;;;5031706;28;20033;-67
2021/12/08 10:06:37;;;;;;;12.45;3.13;;;18.40;57.70;;;;;;5013969;28;20030;-67
2021/12/08 10:09:03;;;;;;;10.57;2.17;;;18.30;57.40;;;;;;5046040;28;20052;-67
2021/12/08 10:11:29;;;;;;;10.75;2.35;;;18.30;57.50;;;;;;5051986;28;20056;-66
2021/12/08 10:13:54;;;;;;;13.27;2.63;;;18.20;57.60;;;;;;5034985;28;20033;-67
2021/12/08 10:16:20;;;;;;;12.57;2.63;;;18.20;57.60;;;;;;5048271;28;20014;-66
2021/12/08 10:18:47;;;;;;;8.93;1.75;;;18.20;58.70;;;;;;5039793;28;20123;-66
2021/12/08 10:21:16;;;;;;;13.45;2.70;;;18.20;57.60;;;;;;5045231;28;20045;-66
2021/12/08 10:23:43;;;;;;;6.35;1.60;;;18.20;57.50;;;;;;5033459;28;20052;-66
2021/12/08 10:26:14;;;;;;;9.30;1.67;;;18.20;57.50;;;;;;5038912;28;20021;-66
2021/12/08 10:28:40;;;;;;;8.60;2.45;;;18.20;57.40;;;;;;5048662;28;20064;-66
2021/12/08 10:31:15;;;;;;;13.50;2.30;;;18.20;57.60;;;;;;5034916;28;20092;-66
2021/12/08 10:33:55;;;;;;;11.77;2.38;;;18.10;57.30;;;;;;5036875;28;20036;-67
2021/12/08 10:36:46;;;;;;;12.57;2.03;;;18.20;57.40;;;;;;5036673;28;20026;-67
2021/12/08 10:39:16;;;;;;;8.32;1.83;;;18.10;57.30;;;;;;5051470;28;20121;-67
2021/12/08 10:42:01;;;;;;;11.60;1.90;;;18.10;57.60;;;;;;5052244;28;20020;-67
2021/12/08 10:44:36;;;;;;;8.45;2.40;;;18.10;57.50;;;;;;5036393;28;20029;-67
2021/12/08 10:47:03;;;;;;;12.18;1.83;;;18.10;57.30;;;;;;5042538;28;20074;-67
2021/12/08 10:54:42;;;;;;;6.40;1.48;;;18.00;57.10;;;;;;5037313;28;20028;-66
2021/12/08 10:57:33;;;;;;;5.38;1.25;;;18.00;57.00;;;;;;5031702;28;20025;-67
2021/12/08 10:59:58;;;;;;;7.80;1.55;;;18.00;56.70;;;;;;5043093;28;20066;-69
2021/12/08 11:02:45;;;;;;;5.63;1.33;;;17.90;57.00;;;;;;5039974;28;20049;-68
2021/12/08 11:05:25;;;;;;;8.00;1.48;;;18.00;57.30;;;;;;5040774;28;20028;-69
2021/12/08 11:08:03;;;;;;;6.72;1.23;;;18.10;57.70;;;;;;5042040;28;20021;-68
2021/12/08 11:10:33;;;;;;;4.13;1.20;;;18.20;57.80;;;;;;5043769;28;20053;-68
2021/12/08 11:12:59;;;;;;;7.22;1.55;;;18.20;57.90;;;;;;5039087;28;20025;-69
2021/12/08 11:15:26;;;;;;;2.45;1.10;;;18.30;57.80;;;;;;5034784;28;20018;-69
2021/12/08 11:18:10;;;;;;;3.17;1.00;;;18.40;57.80;;;;;;5044174;28;20017;-68
2021/12/08 11:20:50;;;;;;;6.68;1.27;;;18.50;57.70;;;;;;5036599;28;20032;-68
2021/12/08 11:23:38;;;;;;;4.00;1.00;;;18.50;57.60;;;;;;5051767;28;20053;-67
2021/12/08 11:26:08;;;;;;;5.90;1.35;;;18.50;58.70;;;;;;5038521;28;20033;-67
2021/12/08 11:28:34;;;;;;;6.18;1.17;;;18.50;57.70;;;;;;5044456;28;20017;-67
2021/12/08 11:31:18;;;;;;;4.78;1.25;;;18.60;57.80;;;;;;5044710;28;20052;-68
2021/12/08 11:33:50;;;;;;;4.75;1.30;;;18.70;57.60;;;;;;5035228;28;20096;-67
2021/12/08 11:36:19;;;;;;;5.17;1.67;;;18.60;57.60;;;;;;5026151;28;20553;-67
2021/12/08 11:38:46;;;;;;;2.17;0.90;;;18.70;57.80;;;;;;5051434;28;20498;-68
2021/12/08 11:41:21;;;;;;;5.35;1.10;;;18.70;57.70;;;;;;5041767;28;20120;-67
2021/12/08 11:43:51;;;;;;;4.00;1.10;;;18.80;57.70;;;;;;5039679;28;20032;-67
2021/12/08 11:46:17;;;;;;;4.60;1.40;;;18.80;57.70;;;;;;5040725;28;20357;-67
2021/12/08 11:49:08;;;;;;;5.57;1.42;;;18.90;57.70;;;;;;5041291;28;20112;-67
2021/12/08 11:51:44;;;;;;;6.03;1.42;;;18.90;57.50;;;;;;5036661;28;20026;-67
2021/12/08 11:54:45;;;;;;;7.65;0.93;;;18.90;57.80;;;;;;5044773;28;20406;-67
2021/12/08 11:57:18;;;;;;;5.03;1.10;;;19.00;57.60;;;;;;5037379;28;20026;-67
2021/12/08 11:59:58;;;;;;;5.45;1.30;;;19.00;57.70;;;;;;5043034;28;20021;-67
2021/12/08 12:02:37;;;;;;;6.30;1.23;;;19.10;57.70;;;;;;5052095;28;20021;-67
2021/12/08 12:05:08;;;;;;;4.15;1.10;;;19.00;57.70;;;;;;5041250;28;20033;-67
2021/12/08 12:07:34;;;;;;;3.40;0.98;;;19.10;57.70;;;;;;5034096;28;20057;-67
2021/12/08 12:09:59;;;;;;;4.38;0.93;;;19.10;57.60;;;;;;5040654;28;20111;-68
2021/12/08 12:12:25;;;;;;;3.53;1.10;;;19.10;57.60;;;;;;5036885;28;20056;-67
2021/12/08 12:14:51;;;;;;;2.33;1.00;;;19.10;57.60;;;;;;5048715;28;20033;-67
2021/12/08 12:17:17;;;;;;;2.78;0.90;;;19.20;57.60;;;;;;5043777;28;20094;-67
2021/12/08 12:20:12;;;;;;;3.22;1.10;;;19.20;57.60;;;;;;5040070;28;20021;-67
2021/12/08 12:22:59;;;;;;;1.25;0.70;;;19.20;57.50;;;;;;5049173;28;20056;-67
2021/12/08 12:25:51;;;;;;;2.83;1.00;;;19.30;58.40;;;;;;5052670;28;20029;-68
2021/12/08 12:28:24;;;;;;;4.60;0.98;;;19.30;57.30;;;;;;5025975;28;20379;-64
2021/12/08 12:31:08;;;;;;;2.63;1.05;;;19.30;58.60;;;;;;5042557;28;20022;-64
2021/12/08 12:33:44;;;;;;;2.88;1.00;;;19.40;57.20;;;;;;5039830;28;20092;-64
2021/12/08 12:36:24;;;;;;;1.38;0.80;;;19.30;57.20;;;;;;5043546;28;20032;-64
2021/12/08 12:38:50;;;;;;;1.92;0.57;;;19.30;57.20;;;;;;5046002;28;20017;-64
2021/12/08 12:41:30;;;;;;;1.63;0.90;;;19.30;57.30;;;;;;5034368;28;20483;-64
2021/12/08 12:44:15;;;;;;;2.50;0.70;;;19.30;57.00;;;;;;5041805;28;20438;-64
2021/12/08 12:49:32;;;;;;;2.53;0.82;;;19.30;56.90;;;;;;5048254;28;20029;-64
2021/12/08 12:52:02;;;;;;;4.05;0.90;;;19.30;57.20;;;;;;5048336;28;20014;-64
2021/12/08 12:54:28;;;;;;;3.63;0.95;;;19.30;57.10;;;;;;5033158;28;20029;-64
2021/12/08 12:56:55;;;;;;;2.42;1.05;;;19.30;57.00;;;;;;5051013;28;20397;-64
2021/12/08 12:59:22;;;;;;;2.47;0.90;;;19.30;57.00;;;;;;5039071;28;20084;-64
2021/12/08 13:02:14;;;;;;;2.40;0.85;;;19.30;57.00;;;;;;5018228;28;20442;-64
2021/12/08 13:05:02;;;;;;;1.83;0.90;;;19.30;56.80;;;;;;5045383;28;20116;-64
2021/12/08 13:07:29;;;;;;;1.00;0.60;;;19.30;56.80;;;;;;5044229;28;20029;-64
2021/12/08 13:09:55;;;;;;;1.67;0.50;;;19.30;57.00;;;;;;5041136;28;20014;-64
2021/12/08 13:12:34;;;;;;;4.07;0.88;;;19.30;57.00;;;;;;5042835;28;20479;-64
2021/12/08 13:15:13;;;;;;;1.92;0.65;;;19.30;56.90;;;;;;5033426;28;20097;-64
2021/12/08 13:17:58;;;;;;;2.75;1.10;;;19.30;57.00;;;;;;5040286;28;20013;-64
2021/12/08 13:20:25;;;;;;;14.35;3.92;;;19.30;57.10;;;;;;5036813;28;20495;-65
2021/12/08 13:22:53;;;;;;;19.83;6.00;;;19.40;57.10;;;;;;5047182;28;20123;-64
2021/12/08 13:25:42;;;;;;;21.27;6.60;;;19.40;57.10;;;;;;5033265;28;20029;-64
2021/12/08 13:29:02;;;;;;;20.60;6.07;;;19.40;57.00;;;;;;5044498;28;20028;-64
2021/12/08 13:34:01;;;;;;;23.95;6.88;;;19.40;57.20;;;;;;5047831;28;20112;-64
2021/12/08 13:36:32;;;;;;;17.15;5.85;;;19.50;58.20;;;;;;5036460;28;20542;-65
2021/12/08 13:38:57;;;;;;;18.48;5.78;;;19.50;57.30;;;;;;5040787;28;20087;-65
2021/12/08 13:41:24;;;;;;;20.63;5.93;;;19.50;57.20;;;;;;5033985;28;20483;-64
2021/12/08 13:43:50;;;;;;;14.98;5.30;;;19.40;57.10;;;;;;5047847;28;20056;-64